Avant, Oklahoma
Current Conditions -  °F | °C
As of 2:53 AM on Friday 24 Oct 2014 (Local Time) from KBVO Reporting Station
Scattered Clouds Scattered Clouds  
Wind Chill: 56°   Ceiling: Unl
Heat Index: 56°   Visibility: 9mi
Dew Point: 56°   Wind: 3mph
Humidity: 100%   Direction: 190°S
Pressure: 30.11"   Gusts: NA
Location:  36.49°N, 96.06°W
Report Text: KBVO 240753Z AUTO 19003KT 9SM SCT049 13/13 A3011 RMK AO2 SLP190 T01330133
Loading
Personal Weather Stations






























Interactive Weather Map
Tropical Storm Tracking
New forecast layout! Learn more

10-Day Weather Forecast

Advertisements
Track Severe Weather on mobile